Time;durP1;ratioP1;P1;durP2;ratioP2;P2;SDS_P1;SDS_P2;PMS_P1;PMS_P2;Temp;Humidity;BMP_temperature;BMP_pressure;BME280_temperature;BME280_humidity;BME280_pressure;Samples;Min_cycle;Max_cycle;Signal;HPM_P1;HPM_P2
2022/02/17 00:00:27;;;;;;;;;;;;;;;12.09;65.83;97803.95;1724237;81;21171;-80
2022/02/17 00:02:53;;;;;;;;;;;;;;;12.37;65.13;97803.89;1722799;81;20461;-80
2022/02/17 00:05:20;;;;;;;;;;;;;;;11.96;66.09;97800.16;1720355;83;20162;-79
2022/02/17 00:07:46;;;;;;;;;;;;;;;12.07;66.18;97770.81;1736017;81;20618;-81
2022/02/17 00:10:12;;;;;;;;;;;;;;;12.06;66.15;97770.02;1762227;81;20159;-78
2022/02/17 00:12:38;;;;;;;;;;;;;;;11.71;67.29;97752.64;1761018;79;21131;-79
2022/02/17 00:15:04;;;;;;;;;;;;;;;11.91;66.93;97744.45;1760532;80;20776;-80
2022/02/17 00:17:29;;;;;;;;;;;;;;;11.81;67.40;97744.47;1759555;81;20206;-81
2022/02/17 00:19:55;;;;;;;;;;;;;;;11.62;67.87;97740.23;1757206;80;20132;-79
2022/02/17 00:22:20;;;;;;;;;;;;;;;11.73;67.71;97736.86;1765707;80;20421;-80
2022/02/17 00:24:46;;;;;;;;;;;;;;;11.89;67.39;97712.14;1778036;79;21182;-78
2022/02/17 00:27:12;;;;;;;;;;;;;;;12.07;66.83;97704.16;1778656;79;20155;-78
2022/02/17 00:29:37;;;;;;;;;;;;;;;11.79;67.63;97691.02;1756703;80;20204;-78
2022/02/17 00:32:04;;;;;;;;;;;;;;;11.90;67.46;97670.93;1741365;81;20647;-81
2022/02/17 00:34:30;;;;;;;;;;;;;;;12.08;66.83;97667.42;1763235;79;20244;-79
2022/02/17 00:36:56;;;;;;;;;;;;;;;11.82;67.75;97651.39;1763889;80;21955;-79
2022/02/17 00:39:21;;;;;;;;;;;;;;;11.90;67.47;97641.02;1758067;79;20127;-79
2022/02/17 00:41:47;;;;;;;;;;;;;;;12.15;66.82;97615.22;1760474;79;20175;-79
2022/02/17 00:44:13;;;;;;;;;;;;;;;12.27;66.51;97610.45;1762878;79;20435;-80
2022/02/17 00:46:39;;;;;;;;;;;;;;;11.88;67.52;97601.57;1766390;79;20181;-79
2022/02/17 00:49:05;;;;;;;;;;;;;;;11.55;68.73;97600.76;1763690;80;21082;-82
2022/02/17 00:51:31;;;;;;;;;;;;;;;11.75;68.29;97623.73;1763823;79;20205;-82
2022/02/17 00:53:56;;;;;;;;;;;;;;;11.78;68.28;97634.39;1759171;80;20452;-79
2022/02/17 00:56:22;;;;;;;;;;;;;;;11.64;68.82;97627.96;1763282;81;20143;-79
2022/02/17 00:58:47;;;;;;;;;;;;;;;11.98;67.83;97620.91;1765560;81;20194;-83
2022/02/17 01:01:13;;;;;;;;;;;;;;;11.88;68.22;97624.58;1764132;79;21159;-79
2022/02/17 01:03:38;;;;;;;;;;;;;;;11.90;68.27;97605.31;1765035;81;20463;-83
2022/02/17 01:06:04;;;;;;;;;;;;;;;11.97;67.89;97613.98;1758901;81;20139;-78
2022/02/17 01:08:30;;;;;;;;;;;;;;;11.84;68.37;97602.55;1763543;80;20169;-81
2022/02/17 01:10:56;;;;;;;;;;;;;;;11.91;68.07;97592.39;1765126;79;20416;-79
2022/02/17 01:13:23;;;;;;;;;;;;;;;11.56;69.33;97579.39;1767782;79;21167;-79
2022/02/17 01:15:49;;;;;;;;;;;;;;;11.83;68.56;97569.73;1767695;81;20165;-80
2022/02/17 01:18:15;;;;;;;;;;;;;;;11.93;68.17;97542.73;1766285;81;20122;-78
2022/02/17 01:20:41;;;;;;;;;;;;;;;11.71;69.11;97549.87;1763332;81;20352;-79
2022/02/17 01:23:07;;;;;;;;;;;;;;;12.15;67.79;97518.66;1734520;81;20276;-79
2022/02/17 01:25:33;;;;;;;;;;;;;;;12.21;67.38;97502.36;1713886;83;21093;-79
2022/02/17 01:28:01;;;;;;;;;;;;;;;12.28;67.05;97483.73;1712388;83;20148;-79
2022/02/17 01:30:26;;;;;;;;;;;;;;;12.16;67.47;97463.37;1744005;81;20126;-79
2022/02/17 01:32:52;;;;;;;;;;;;;;;11.83;68.39;97435.67;1711525;83;20135;-79
2022/02/17 01:35:17;;;;;;;;;;;;;;;11.72;68.77;97425.91;1711805;83;20530;-78
2022/02/17 01:37:45;;;;;;;;;;;;;;;12.05;67.63;97416.59;1704306;83;21071;-80
2022/02/17 01:40:11;;;;;;;;;;;;;;;11.91;68.04;97394.84;1731601;80;20184;-79
2022/02/17 01:42:37;;;;;;;;;;;;;;;11.88;68.08;97413.82;1730002;80;20232;-81
2022/02/17 01:45:06;;;;;;;;;;;;;;;11.74;68.85;97437.05;1730949;80;20139;-79
2022/02/17 01:47:32;;;;;;;;;;;;;;;11.69;69.02;97432.98;1737243;80;20241;-78
2022/02/17 01:49:57;;;;;;;;;;;;;;;11.58;69.45;97437.77;1735788;80;21151;-78
2022/02/17 01:52:23;;;;;;;;;;;;;;;11.85;68.53;97387.34;1731517;80;20133;-82
2022/02/17 01:54:49;;;;;;;;;;;;;;;11.94;68.34;97383.04;1736082;80;20903;-79
2022/02/17 01:57:16;;;;;;;;;;;;;;;11.62;69.44;97383.38;1733680;80;20436;-81
2022/02/17 01:59:44;;;;;;;;;;;;;;;11.72;69.23;97370.39;1729140;80;20696;-77
2022/02/17 02:02:10;;;;;;;;;;;;;;;11.77;69.16;97337.98;1715014;83;21279;-77
2022/02/17 02:04:37;;;;;;;;;;;;;;;11.76;69.22;97316.03;1702714;81;20211;-77
2022/02/17 02:07:03;;;;;;;;;;;;;;;11.67;69.45;97308.18;1713130;82;20152;-77
2022/02/17 02:09:29;;;;;;;;;;;;;;;11.77;69.46;97298.31;1709983;83;20251;-79
2022/02/17 02:11:54;;;;;;;;;;;;;;;11.65;69.96;97267.94;1747979;81;20708;-80
2022/02/17 02:14:20;;;;;;;;;;;;;;;11.77;70.24;97274.00;1727806;82;21027;-78
2022/02/17 02:16:46;;;;;;;;;;;;;;;11.63;71.19;97292.48;1725894;82;21115;-82
2022/02/17 02:19:12;;;;;;;;;;;;;;;11.66;70.92;97295.98;1727912;82;20472;-78
2022/02/17 02:21:37;;;;;;;;;;;;;;;11.58;71.23;97301.12;1725145;82;20170;-78
2022/02/17 02:24:04;;;;;;;;;;;;;;;11.83;71.02;97254.55;1765139;79;20126;-79
2022/02/17 02:26:29;;;;;;;;;;;;;;;11.56;72.67;97255.63;1767348;80;21148;-77
2022/02/17 02:28:55;;;;;;;;;;;;;;;11.60;73.17;97269.17;1764766;79;20585;-77
2022/02/17 02:31:21;;;;;;;;;;;;;;;11.77;72.64;97240.95;1763987;80;20135;-81
2022/02/17 02:33:47;;;;;;;;;;;;;;;11.72;73.77;97237.42;1766396;79;20159;-78
2022/02/17 02:36:13;;;;;;;;;;;;;;;11.64;74.59;97224.06;1766523;79;20176;-79
2022/02/17 02:38:38;;;;;;;;;;;;;;;11.59;76.28;97217.34;1768742;80;21131;-81
2022/02/17 02:41:04;;;;;;;;;;;;;;;11.56;76.98;97194.84;1762576;80;20179;-78
2022/02/17 02:43:29;;;;;;;;;;;;;;;11.85;76.51;97182.42;1763014;79;20206;-79
2022/02/17 02:45:55;;;;;;;;;;;;;;;11.25;78.89;97152.50;1765634;80;20892;-78
2022/02/17 02:48:21;;;;;;;;;;;;;;;11.52;79.13;97149.30;1767987;80;20147;-79
2022/02/17 02:50:46;;;;;;;;;;;;;;;11.32;80.81;97128.05;1765202;79;21987;-79
2022/02/17 02:53:16;;;;;;;;;;;;;;;11.58;80.41;97131.18;1764182;79;20123;-80
2022/02/17 02:55:46;;;;;;;;;;;;;;;11.26;81.45;97115.78;1768681;79;20181;-81
2022/02/17 02:58:12;;;;;;;;;;;;;;;11.42;81.60;97107.12;1765196;80;20125;-77
2022/02/17 03:00:37;;;;;;;;;;;;;;;11.18;82.88;97092.40;1769740;80;20244;-81
2022/02/17 03:03:03;;;;;;;;;;;;;;;11.14;82.97;97090.22;1765123;80;21155;-80
2022/02/17 03:05:29;;;;;;;;;;;;;;;11.19;83.57;97090.05;1770349;80;20125;-77
2022/02/17 03:07:55;;;;;;;;;;;;;;;11.05;85.21;97079.75;1771278;79;20452;-80
2022/02/17 03:10:21;;;;;;;;;;;;;;;11.01;85.58;97083.09;1760482;80;20904;-78
2022/02/17 03:12:46;;;;;;;;;;;;;;;10.96;86.11;97065.31;1757910;79;20140;-82
2022/02/17 03:15:12;;;;;;;;;;;;;;;10.86;87.77;97082.27;1758384;79;21281;-78
2022/02/17 03:17:38;;;;;;;;;;;;;;;10.89;88.67;97052.76;1767332;80;20145;-78
2022/02/17 03:20:07;;;;;;;;;;;;;;;10.96;88.86;97048.16;1779406;79;20439;-79
2022/02/17 03:22:31;;;;;;;;;;;;;;;10.90;89.82;97051.73;1748987;80;20283;-78
2022/02/17 03:24:57;;;;;;;;;;;;;;;10.86;90.88;97050.59;1771229;80;20174;-79
2022/02/17 03:27:22;;;;;;;;;;;;;;;10.90;91.18;97050.41;1743698;81;21024;-79
2022/02/17 03:29:48;;;;;;;;;;;;;;;11.06;90.84;97044.40;1739398;82;20143;-78
2022/02/17 03:32:14;;;;;;;;;;;;;;;10.99;91.35;97027.88;1751035;81;20522;-78
2022/02/17 03:34:39;;;;;;;;;;;;;;;10.90;92.94;97017.41;1741981;81;20414;-79
2022/02/17 03:37:05;;;;;;;;;;;;;;;11.05;92.44;97013.73;1745546;81;20134;-82
2022/02/17 03:39:30;;;;;;;;;;;;;;;10.87;93.56;97024.48;1748712;81;21104;-78
2022/02/17 03:41:56;;;;;;;;;;;;;;;10.71;95.24;97033.42;1745075;80;20123;-81
2022/02/17 03:44:22;;;;;;;;;;;;;;;10.76;96.21;96999.20;1747094;81;20686;-79
2022/02/17 03:46:47;;;;;;;;;;;;;;;10.90;96.01;96992.34;1746851;80;20523;-78
2022/02/17 03:49:13;;;;;;;;;;;;;;;10.85;96.16;96984.33;1753037;80;20130;-78
2022/02/17 03:51:38;;;;;;;;;;;;;;;11.00;95.17;96960.84;1744430;81;21015;-79
2022/02/17 03:54:04;;;;;;;;;;;;;;;11.04;96.31;96961.95;1743503;81;20172;-78
2022/02/17 03:56:29;;;;;;;;;;;;;;;11.01;96.41;96951.87;1746685;81;21111;-78
2022/02/17 03:59:01;;;;;;;;;;;;;;;10.96;96.45;96940.70;1749560;81;20221;-78
2022/02/17 04:01:29;;;;;;;;;;;;;;;10.67;99.52;96933.31;1742513;81;20185;-79
2022/02/17 04:03:54;;;;;;;;;;;;;;;10.76;99.65;96924.52;1747774;81;21962;-80
2022/02/17 04:06:20;;;;;;;;;;;;;;;10.94;99.54;96912.42;1748856;80;20186;-82
2022/02/17 04:08:45;;;;;;;;;;;;;;;11.11;98.52;96908.48;1743569;81;20142;-78
2022/02/17 04:11:11;;;;;;;;;;;;;;;10.80;100.00;96911.63;1749703;81;20148;-77
2022/02/17 04:13:37;;;;;;;;;;;;;;;10.94;100.00;96902.39;1744643;81;20154;-78
2022/02/17 04:16:03;;;;;;;;;;;;;;;11.06;99.77;96893.88;1752625;81;21150;-79
2022/02/17 04:18:29;;;;;;;;;;;;;;;10.95;100.00;96882.86;1742965;81;21434;-78
2022/02/17 04:20:55;;;;;;;;;;;;;;;11.02;100.00;96874.80;1745092;80;20147;-79
2022/02/17 04:23:20;;;;;;;;;;;;;;;10.69;100.00;96879.80;1749751;81;20167;-78
2022/02/17 04:25:46;;;;;;;;;;;;;;;10.73;100.00;96883.55;1748509;80;20113;-78
2022/02/17 04:28:11;;;;;;;;;;;;;;;11.00;100.00;96856.56;1750530;81;21584;-78
2022/02/17 04:30:37;;;;;;;;;;;;;;;10.96;100.00;96865.98;1752090;81;20167;-79
2022/02/17 04:33:03;;;;;;;;;;;;;;;11.07;100.00;96846.61;1754547;80;20156;-78
2022/02/17 04:35:29;;;;;;;;;;;;;;;10.79;100.00;96839.58;1745485;81;20154;-81
2022/02/17 04:37:55;;;;;;;;;;;;;;;10.76;100.00;96853.25;1745629;81;20130;-79
2022/02/17 04:42:17;;;;;;;;;;;;;;;11.02;100.00;96811.44;1743275;80;21087;-79
2022/02/17 04:42:49;;;;;;;;;;;;;;;11.10;100.00;96803.88;1745336;81;20138;-79
2022/02/17 04:45:14;;;;;;;;;;;;;;;10.90;100.00;96793.03;1749124;80;20121;-82
2022/02/17 04:47:40;;;;;;;;;;;;;;;11.21;100.00;96796.12;1735598;81;20128;-82
2022/02/17 04:50:06;;;;;;;;;;;;;;;10.88;100.00;96791.16;1747388;81;20170;-78
2022/02/17 04:52:31;;;;;;;;;;;;;;;10.98;100.00;96790.50;1748415;81;22091;-78
2022/02/17 04:54:57;;;;;;;;;;;;;;;11.07;100.00;96795.13;1741791;81;20116;-79
2022/02/17 04:57:22;;;;;;;;;;;;;;;11.16;100.00;96759.08;1745975;81;20138;-78
2022/02/17 04:59:48;;;;;;;;;;;;;;;11.10;100.00;96774.84;1749051;81;20142;-78
2022/02/17 05:02:14;;;;;;;;;;;;;;;11.14;100.00;96765.39;1744894;81;20619;-81
2022/02/17 05:04:39;;;;;;;;;;;;;;;11.22;100.00;96761.54;1744955;81;21182;-77
2022/02/17 05:07:05;;;;;;;;;;;;;;;11.57;99.55;96749.02;1748163;81;20548;-77
2022/02/17 05:09:30;;;;;;;;;;;;;;;11.45;99.73;96735.42;1747975;81;20166;-78
2022/02/17 05:11:56;;;;;;;;;;;;;;;11.19;100.00;96757.27;1747659;81;20154;-77
2022/02/17 05:14:21;;;;;;;;;;;;;;;11.45;99.84;96740.70;1747935;81;20176;-78
2022/02/17 05:16:47;;;;;;;;;;;;;;;11.44;99.71;96783.22;1746492;80;21187;-78
2022/02/17 05:19:13;;;;;;;;;;;;;;;11.38;99.93;96773.09;1749382;81;20156;-78
2022/02/17 05:21:38;;;;;;;;;;;;;;;11.43;100.00;96820.70;1744054;80;20144;-78
2022/02/17 05:24:04;;;;;;;;;;;;;;;11.16;100.00;96854.16;1746965;81;20397;-81
2022/02/17 05:26:30;;;;;;;;;;;;;;;11.34;100.00;96832.73;1753244;80;20209;-78
2022/02/17 05:28:55;;;;;;;;;;;;;;;11.44;100.00;96806.47;1771389;79;21376;-77
2022/02/17 05:31:21;;;;;;;;;;;;;;;11.28;100.00;96833.73;1759358;80;20131;-76
2022/02/17 05:33:47;;;;;;;;;;;;;;;11.45;100.00;96867.52;1759280;80;20132;-77
2022/02/17 05:36:12;;;;;;;;;;;;;;;11.20;100.00;96906.75;1753731;80;20729;-79
2022/02/17 05:38:38;;;;;;;;;;;;;;;10.74;100.00;97112.14;1758066;80;20161;-78
2022/02/17 05:41:03;;;;;;;;;;;;;;;11.32;96.64;97034.27;1761511;79;21035;-79
2022/02/17 05:43:29;;;;;;;;;;;;;;;10.90;97.95;97092.13;1758425;80;20185;-78
2022/02/17 05:45:55;;;;;;;;;;;;;;;11.16;96.43;97016.57;1755500;80;20141;-79
2022/02/17 05:48:20;;;;;;;;;;;;;;;11.21;93.45;96991.56;1750391;79;20120;-78
2022/02/17 05:50:46;;;;;;;;;;;;;;;11.56;91.78;96986.56;1759696;80;21450;-80
2022/02/17 05:53:12;;;;;;;;;;;;;;;11.27;92.67;96985.33;1752834;80;20568;-78
2022/02/17 05:55:37;;;;;;;;;;;;;;;11.21;88.00;96969.11;1760154;80;20246;-80
2022/02/17 05:58:03;;;;;;;;;;;;;;;11.13;88.27;96955.25;1759417;80;20171;-77
2022/02/17 06:00:28;;;;;;;;;;;;;;;11.11;83.34;96920.36;1756799;80;20220;-78
2022/02/17 06:02:54;;;;;;;;;;;;;;;11.19;82.48;96930.27;1759345;80;20203;-79
2022/02/17 06:05:20;;;;;;;;;;;;;;;11.13;81.17;96875.23;1752628;80;21069;-80
2022/02/17 06:07:45;;;;;;;;;;;;;;;11.27;80.01;96890.23;1759529;80;20638;-79
2022/02/17 06:10:11;;;;;;;;;;;;;;;11.41;79.96;96876.97;1754688;79;20149;-84
2022/02/17 06:12:43;;;;;;;;;;;;;;;11.38;80.42;96871.38;1759312;80;20462;-79
2022/02/17 06:15:10;;;;;;;;;;;;;;;11.18;81.68;96870.55;1755906;80;20334;-80
2022/02/17 06:17:36;;;;;;;;;;;;;;;10.96;82.25;96900.30;1750543;80;20876;-79
2022/02/17 06:20:02;;;;;;;;;;;;;;;10.89;83.16;96895.19;1753851;80;20360;-77
2022/02/17 06:22:28;;;;;;;;;;;;;;;10.83;82.71;96916.44;1760157;79;20478;-79
2022/02/17 06:24:54;;;;;;;;;;;;;;;10.73;82.66;96919.17;1759628;80;20276;-78
2022/02/17 06:27:19;;;;;;;;;;;;;;;10.75;82.83;96918.94;1758800;79;20147;-81
2022/02/17 06:29:45;;;;;;;;;;;;;;;10.92;82.74;96915.02;1755305;80;21098;-77
2022/02/17 06:32:10;;;;;;;;;;;;;;;10.74;82.88;96914.19;1750531;80;20291;-77
2022/02/17 06:34:36;;;;;;;;;;;;;;;10.88;82.78;96903.34;1763012;79;20149;-81
2022/02/17 06:37:02;;;;;;;;;;;;;;;10.86;83.15;96897.48;1756158;80;20221;-78
2022/02/17 06:39:27;;;;;;;;;;;;;;;11.11;81.95;96900.56;1756526;80;20207;-79
2022/02/17 06:41:53;;;;;;;;;;;;;;;10.75;82.87;96930.81;1760979;80;21139;-79
2022/02/17 06:44:19;;;;;;;;;;;;;;;10.54;83.20;96945.48;1760446;80;20341;-78
2022/02/17 06:46:44;;;;;;;;;;;;;;;10.60;82.90;96919.48;1758723;80;20193;-78
2022/02/17 06:49:10;;;;;;;;;;;;;;;10.68;82.75;96920.41;1756628;80;20163;-79
2022/02/17 06:51:36;;;;;;;;;;;;;;;10.87;81.53;96885.89;1751284;79;20119;-79
2022/02/17 06:54:01;;;;;;;;;;;;;;;11.16;80.89;96892.45;1754188;80;21680;-78
2022/02/17 06:56:27;;;;;;;;;;;;;;;10.85;81.17;96894.59;1755848;79;20159;-79
2022/02/17 06:58:52;;;;;;;;;;;;;;;11.07;80.14;96895.47;1754348;79;20558;-78
2022/02/17 07:01:18;;;;;;;;;;;;;;;10.87;80.63;96905.70;1755774;79;20438;-82
2022/02/17 07:03:44;;;;;;;;;;;;;;;11.04;80.15;96856.34;1758678;80;20198;-79
2022/02/17 07:06:09;;;;;;;;;;;;;;;11.37;79.36;96860.52;1754329;79;20997;-82
2022/02/17 07:08:35;;;;;;;;;;;;;;;11.50;78.91;96851.73;1757148;80;20558;-78
2022/02/17 07:11:03;;;;;;;;;;;;;;;11.11;79.18;96825.83;1753266;79;20137;-81
2022/02/17 07:13:29;;;;;;;;;;;;;;;11.40;78.37;96866.11;1754610;80;20122;-78
2022/02/17 07:15:55;;;;;;;;;;;;;;;11.02;79.66;96888.80;1758985;79;20177;-79
2022/02/17 07:18:21;;;;;;;;;;;;;;;10.89;80.39;96894.37;1758042;79;21195;-78
2022/02/17 07:20:48;;;;;;;;;;;;;;;10.88;80.07;96892.78;1749974;79;20518;-80
2022/02/17 07:23:17;;;;;;;;;;;;;;;10.88;80.48;96905.45;1754607;79;20135;-80
2022/02/17 07:25:45;;;;;;;;;;;;;;;10.78;80.24;96952.28;1754533;80;20155;-81
2022/02/17 07:28:12;;;;;;;;;;;;;;;10.40;81.47;96958.94;1727864;80;20166;-80
2022/02/17 07:30:38;;;;;;;;;;;;;;;10.83;80.49;96966.59;1763913;80;21082;-79
2022/02/17 07:33:04;;;;;;;;;;;;;;;10.82;80.00;96961.05;1759424;80;20192;-78
2022/02/17 07:35:30;;;;;;;;;;;;;;;11.01;79.40;96952.40;1754816;80;20183;-79
2022/02/17 07:37:56;;;;;;;;;;;;;;;11.19;78.64;96952.71;1755099;80;20662;-78
2022/02/17 07:40:21;;;;;;;;;;;;;;;10.95;78.58;96963.38;1754685;79;20160;-79
2022/02/17 07:42:47;;;;;;;;;;;;;;;10.74;79.52;96965.66;1760459;80;21159;-80
2022/02/17 07:45:13;;;;;;;;;;;;;;;10.92;78.45;96958.57;1762890;80;20156;-79
2022/02/17 07:47:45;;;;;;;;;;;;;;;11.05;77.86;96954.33;1760050;80;20259;-79
2022/02/17 07:50:09;;;;;;;;;;;;;;;10.82;77.70;96955.77;1757824;79;20175;-78
2022/02/17 07:52:34;;;;;;;;;;;;;;;11.17;76.98;96965.33;1767442;80;20322;-81
2022/02/17 07:55:00;;;;;;;;;;;;;;;11.06;77.31;96958.58;1755385;79;21191;-78
2022/02/17 07:57:25;;;;;;;;;;;;;;;10.95;77.37;96958.09;1753135;79;20248;-80
2022/02/17 07:59:51;;;;;;;;;;;;;;;11.18;76.76;96953.20;1761846;80;20137;-79
2022/02/17 08:02:17;;;;;;;;;;;;;;;10.93;77.32;96967.58;1756234;79;20241;-79
2022/02/17 08:04:43;;;;;;;;;;;;;;;11.03;76.11;96960.87;1752473;80;20148;-79
2022/02/17 08:07:10;;;;;;;;;;;;;;;10.83;77.83;96963.95;1751407;79;21121;-79
2022/02/17 08:09:37;;;;;;;;;;;;;;;11.27;76.25;96965.52;1744793;80;20322;-80
2022/02/17 08:12:03;;;;;;;;;;;;;;;10.80;78.17;96957.82;1757959;79;20205;-81
2022/02/17 08:14:29;;;;;;;;;;;;;;;10.85;78.45;96973.77;1758535;79;20170;-79
2022/02/17 08:16:56;;;;;;;;;;;;;;;10.53;79.03;96991.37;1756614;80;20282;-78
2022/02/17 08:19:21;;;;;;;;;;;;;;;10.56;79.12;96986.41;1760823;80;21241;-82
2022/02/17 08:21:47;;;;;;;;;;;;;;;10.66;79.06;96981.88;1757039;79;20135;-81
2022/02/17 08:24:13;;;;;;;;;;;;;;;10.75;79.02;96987.06;1752309;80;20727;-82
2022/02/17 08:26:39;;;;;;;;;;;;;;;10.90;78.49;96980.45;1749336;80;20167;-79
2022/02/17 08:29:06;;;;;;;;;;;;;;;11.11;78.17;96965.25;1757857;80;20232;-80
2022/02/17 08:31:32;;;;;;;;;;;;;;;11.04;78.12;96967.23;1744841;80;21176;-80
2022/02/17 08:34:03;;;;;;;;;;;;;;;10.87;78.95;96991.48;1738516;80;20168;-83
2022/02/17 08:36:25;;;;;;;;;;;;;;;10.64;79.40;96977.33;1752917;80;20520;-80
2022/02/17 08:38:51;;;;;;;;;;;;;;;10.95;78.61;96970.80;1749915;80;20221;-81
2022/02/17 08:41:17;;;;;;;;;;;;;;;11.10;77.71;96964.97;1743865;80;20224;-81
2022/02/17 08:43:42;;;;;;;;;;;;;;;10.86;78.18;96960.84;1752386;80;21766;-82
2022/02/17 08:46:08;;;;;;;;;;;;;;;11.13;77.09;96953.14;1747765;80;20173;-81
2022/02/17 08:48:33;;;;;;;;;;;;;;;10.99;77.44;96949.20;1755198;80;20173;-81
2022/02/17 08:50:59;;;;;;;;;;;;;;;11.38;76.81;96936.89;1750612;80;21230;-83
2022/02/17 08:53:25;;;;;;;;;;;;;;;11.24;76.76;96932.97;1747243;80;20196;-80
2022/02/17 08:55:50;;;;;;;;;;;;;;;10.82;76.92;96957.09;1742533;80;21121;-80
2022/02/17 08:58:16;;;;;;;;;;;;;;;11.21;76.37;96974.39;1750148;80;20224;-80
2022/02/17 09:00:42;;;;;;;;;;;;;;;11.06;76.14;96957.26;1746618;80;20216;-78
2022/02/17 09:03:11;;;;;;;;;;;;;;;11.19;75.86;96955.35;1746563;80;20703;-78
2022/02/17 09:05:35;;;;;;;;;;;;;;;10.66;76.83;96970.00;1750720;80;20682;-78
2022/02/17 09:08:01;;;;;;;;;;;;;;;10.89;76.39;96963.83;1755843;80;21092;-77
2022/02/17 09:10:26;;;;;;;;;;;;;;;10.92;75.83;96961.21;1749405;80;20489;-80
2022/02/17 09:12:52;;;;;;;;;;;;;;;11.11;75.20;96942.81;1745028;80;20484;-80
2022/02/17 09:15:20;;;;;;;;;;;;;;;11.48;73.81;96927.81;1749096;80;20156;-78
2022/02/17 09:17:46;;;;;;;;;;;;;;;11.60;73.08;96937.48;1754699;80;20516;-79
2022/02/17 09:20:12;;;;;;;;;;;;;;;11.31;72.82;96929.14;1758713;80;21053;-79
2022/02/17 09:22:38;;;;;;;;;;;;;;;11.34;73.03;96945.53;1749875;80;20732;-79
2022/02/17 09:25:04;;;;;;;;;;;;;;;11.37;72.63;96976.23;1752876;80;20283;-82
2022/02/17 09:27:30;;;;;;;;;;;;;;;11.20;72.58;96952.97;1761621;80;20611;-79
2022/02/17 09:29:56;;;;;;;;;;;;;;;11.53;70.83;96928.91;1763068;80;20188;-80
2022/02/17 09:32:22;;;;;;;;;;;;;;;11.62;70.59;96906.31;1758510;80;21129;-79
2022/02/17 09:34:48;;;;;;;;;;;;;;;11.79;69.87;96933.55;1759671;80;20514;-79
2022/02/17 09:37:14;;;;;;;;;;;;;;;12.10;69.54;96929.98;1758695;79;20145;-79
2022/02/17 09:39:39;;;;;;;;;;;;;;;11.81;70.22;96936.73;1751735;80;20468;-79
2022/02/17 09:42:06;;;;;;;;;;;;;;;11.65;71.19;96944.16;1749652;80;20219;-81
2022/02/17 09:44:31;;;;;;;;;;;;;;;11.66;70.81;96968.23;1756964;80;21252;-82
2022/02/17 09:46:57;;;;;;;;;;;;;;;11.78;70.38;96953.08;1751468;80;20359;-82
2022/02/17 09:49:23;;;;;;;;;;;;;;;11.56;69.90;96946.42;1762174;79;20542;-78
2022/02/17 09:51:50;;;;;;;;;;;;;;;11.75;69.69;96934.27;1755277;80;20436;-79
2022/02/17 09:54:19;;;;;;;;;;;;;;;11.80;69.09;96943.05;1759012;80;20483;-82
2022/02/17 09:56:45;;;;;;;;;;;;;;;12.02;68.45;96962.16;1742200;80;21894;-83
2022/02/17 09:59:11;;;;;;;;;;;;;;;11.47;69.26;96989.61;1760589;79;20522;-79
2022/02/17 10:01:36;;;;;;;;;;;;;;;11.65;69.03;96976.69;1750740;79;20242;-82
2022/02/17 10:04:16;;;;;;;;;;;;;;;11.47;69.71;96967.69;1757319;79;20533;-82
2022/02/17 10:06:47;;;;;;;;;;;;;;;11.61;68.91;96947.02;1756579;79;20261;-80
2022/02/17 10:09:13;;;;;;;;;;;;;;;11.94;68.63;96944.07;1753515;80;21084;-80
2022/02/17 10:11:41;;;;;;;;;;;;;;;11.73;69.30;96981.27;1753748;79;20428;-81
2022/02/17 10:14:09;;;;;;;;;;;;;;;11.67;68.99;96936.27;1757900;80;20213;-81
2022/02/17 10:17:01;;;;;;;;;;;;;;;11.59;70.03;96986.08;1758887;80;20164;-81
2022/02/17 10:19:27;;;;;;;;;;;;;;;11.72;69.66;96938.19;1755250;80;20590;-81
2022/02/17 10:22:01;;;;;;;;;;;;;;;11.59;69.45;96945.13;1757884;80;21052;-82
2022/02/17 10:24:34;;;;;;;;;;;;;;;11.71;68.89;96962.22;1755568;79;20355;-84
2022/02/17 10:27:05;;;;;;;;;;;;;;;11.66;68.79;96961.09;1756107;80;20183;-78
2022/02/17 10:29:34;;;;;;;;;;;;;;;11.58;69.05;96938.25;1754565;81;21534;-84
2022/02/17 10:32:06;;;;;;;;;;;;;;;11.74;67.64;96994.25;1760566;81;36407;-81
2022/02/17 10:34:31;;;;;;;;;;;;;;;11.83;67.14;96922.73;1756965;81;21099;-81
2022/02/17 10:36:57;;;;;;;;;;;;;;;11.90;66.08;96941.09;1757984;79;20129;-79
2022/02/17 10:39:23;;;;;;;;;;;;;;;11.97;65.75;96930.36;1757935;81;20153;-80
2022/02/17 10:41:53;;;;;;;;;;;;;;;12.15;64.68;96919.48;1746658;80;20204;-82
2022/02/17 10:44:20;;;;;;;;;;;;;;;12.19;63.08;96903.38;1750625;80;20149;-82
2022/02/17 10:46:46;;;;;;;;;;;;;;;12.41;64.44;96911.83;1746293;80;21096;-84
2022/02/17 10:49:12;;;;;;;;;;;;;;;12.31;63.84;96935.02;1747405;81;20157;-77
2022/02/17 10:51:38;;;;;;;;;;;;;;;12.27;63.54;96931.78;1748333;81;20455;-82
2022/02/17 10:54:04;;;;;;;;;;;;;;;12.36;63.39;96904.64;1745348;81;20114;-81
2022/02/17 10:56:30;;;;;;;;;;;;;;;12.48;62.42;96930.97;1761726;79;20143;-79
2022/02/17 10:58:59;;;;;;;;;;;;;;;12.34;60.86;96953.58;1738362;81;21144;-80
2022/02/17 11:01:24;;;;;;;;;;;;;;;12.26;60.40;96952.16;1734526;81;20154;-82
2022/02/17 11:03:51;;;;;;;;;;;;;;;12.24;60.37;96938.89;1737033;81;20300;-78
2022/02/17 11:06:17;;;;;;;;;;;;;;;12.33;59.48;96923.65;1736780;81;20245;-80
2022/02/17 11:08:43;;;;;;;;;;;;;;;12.08;60.16;96905.64;1737345;82;20158;-80
2022/02/17 11:11:10;;;;;;;;;;;;;;;12.15;60.79;96959.16;1762786;80;21075;-79
2022/02/17 11:13:36;;;;;;;;;;;;;;;11.91;64.26;96941.88;1727739;82;20258;-82
2022/02/17 11:16:03;;;;;;;;;;;;;;;10.09;81.40;96961.97;1756390;81;20262;-80
2022/02/17 11:18:29;;;;;;;;;;;;;;;9.92;83.24;96988.23;1759682;80;20272;-80
2022/02/17 11:20:55;;;;;;;;;;;;;;;9.61;83.82;96972.52;1756541;81;20366;-83
2022/02/17 11:23:24;;;;;;;;;;;;;;;9.60;82.54;96944.59;1754904;81;21105;-80
2022/02/17 11:25:50;;;;;;;;;;;;;;;9.55;82.42;96953.67;1734655;81;20161;-79
2022/02/17 11:28:16;;;;;;;;;;;;;;;9.37;80.27;96979.61;1766408;80;20155;-83
2022/02/17 11:30:43;;;;;;;;;;;;;;;9.42;80.07;96959.18;1780723;79;20175;-79
2022/02/17 11:33:27;;;;;;;;;;;;;;;9.73;79.06;96962.52;1750911;80;20133;-79
2022/02/17 11:35:57;;;;;;;;;;;;;;;9.70;79.18;96962.45;1767578;80;21302;-80
2022/02/17 11:38:33;;;;;;;;;;;;;;;9.42;79.44;96952.59;1762246;80;20188;-82
2022/02/17 11:41:07;;;;;;;;;;;;;;;9.72;78.12;96938.51;1763744;80;20174;-80
2022/02/17 11:43:35;;;;;;;;;;;;;;;9.92;77.22;96970.58;1753605;79;20900;-82
2022/02/17 11:46:00;;;;;;;;;;;;;;;10.04;76.62;96962.14;1764844;80;20530;-81
2022/02/17 11:48:35;;;;;;;;;;;;;;;10.44;75.16;96946.60;1761534;80;21093;-80
2022/02/17 11:51:23;;;;;;;;;;;;;;;10.34;74.75;96962.52;1761514;79;20129;-81
2022/02/17 11:53:51;;;;;;;;;;;;;;;10.57;73.92;96941.06;1764069;80;20161;-81
2022/02/17 11:56:20;;;;;;;;;;;;;;;10.63;73.84;96917.70;1751146;80;20224;-83
2022/02/17 11:58:47;;;;;;;;;;;;;;;10.78;73.38;96935.13;1767453;80;20193;-80
2022/02/17 12:01:26;;;;;;;;;;;;;;;10.89;72.24;96960.36;1762374;80;22511;-82
2022/02/17 12:04:09;;;;;;;;;;;;;;;10.99;72.50;96928.08;1758664;80;20219;-83
2022/02/17 12:06:44;;;;;;;;;;;;;;;11.22;72.13;96933.74;1758239;80;20300;-81
2022/02/17 12:09:09;;;;;;;;;;;;;;;11.16;72.48;96929.42;1759283;79;20127;-80
2022/02/17 12:11:41;;;;;;;;;;;;;;;10.66;73.53;96926.45;1758031;79;20161;-80
2022/02/17 12:14:05;;;;;;;;;;;;;;;10.65;74.07;96933.29;1761540;79;20103;-80
2022/02/17 12:16:37;;;;;;;;;;;;;;;10.83;73.00;96958.67;1767894;79;20329;-80
2022/02/17 12:19:14;;;;;;;;;;;;;;;10.66;73.22;96935.69;1764086;79;20155;-80
2022/02/17 12:21:41;;;;;;;;;;;;;;;10.90;72.62;96945.61;1767942;79;20209;-80
2022/02/17 12:24:07;;;;;;;;;;;;;;;10.85;72.17;96946.06;1758188;79;20651;-81
2022/02/17 12:26:41;;;;;;;;;;;;;;;10.80;74.12;96928.29;1768080;80;20449;-80
2022/02/17 12:29:26;;;;;;;;;;;;;;;10.73;74.03;96931.05;1754655;80;20490;-81
2022/02/17 12:31:52;;;;;;;;;;;;;;;10.99;74.25;96934.16;1758529;80;20204;-80
2022/02/17 12:34:18;;;;;;;;;;;;;;;10.76;75.47;96975.45;1757375;79;21077;-81
2022/02/17 12:36:43;;;;;;;;;;;;;;;10.78;75.02;96980.00;1753445;80;20181;-80
2022/02/17 12:39:09;;;;;;;;;;;;;;;10.69;73.63;97039.46;1759417;80;21921;-80
2022/02/17 12:41:35;;;;;;;;;;;;;;;10.92;73.31;96991.57;1752485;80;20236;-80